createdAt,value
2016-12-24T00:01:44.246Z,95.417
2016-12-24T00:04:37.751Z,95.414
2016-12-24T00:07:33.003Z,95.500
2016-12-24T00:10:24.777Z,95.566
2016-12-24T00:13:18.421Z,95.629
2016-12-24T00:16:11.698Z,95.698
2016-12-24T00:19:06.992Z,95.885
2016-12-24T00:21:58.834Z,95.801
2016-12-24T00:24:52.433Z,95.810
2016-12-24T00:27:45.999Z,95.826
2016-12-24T00:30:40.301Z,95.799
2016-12-24T00:33:34.719Z,95.915
2016-12-24T00:36:26.708Z,95.935
2016-12-24T00:39:20.311Z,95.909
2016-12-24T00:42:13.910Z,95.900
2016-12-24T00:45:07.531Z,95.887
2016-12-24T00:48:02.901Z,95.866
2016-12-24T00:50:54.649Z,95.838
2016-12-24T00:53:48.171Z,96.020
2016-12-24T00:56:41.676Z,95.832
2016-12-24T00:59:35.304Z,95.788
2016-12-24T01:02:28.773Z,95.664
2016-12-24T01:05:22.324Z,95.654
2016-12-24T01:08:16.042Z,95.555
2016-12-24T01:11:09.599Z,95.607
2016-12-24T01:14:03.186Z,95.582
2016-12-24T01:16:56.723Z,95.502
2016-12-24T01:19:50.271Z,95.523
2016-12-24T01:22:43.754Z,95.444
2016-12-24T01:25:37.206Z,95.458
2016-12-24T01:28:32.437Z,95.472
2016-12-24T01:31:24.369Z,95.305
2016-12-24T01:34:19.580Z,95.397
2016-12-24T01:37:11.447Z,95.481
2016-12-24T01:40:05.996Z,95.435
2016-12-24T01:42:58.529Z,95.424
2016-12-24T01:45:52.179Z,95.486
2016-12-24T01:48:45.652Z,95.529
2016-12-24T01:51:41.911Z,95.583
2016-12-24T01:54:32.674Z,95.687
2016-12-24T01:57:28.486Z,95.667
2016-12-24T02:00:20.607Z,95.685
2016-12-24T02:03:15.802Z,95.849
2016-12-24T02:06:09.440Z,95.887
2016-12-24T02:09:02.956Z,95.763
2016-12-24T02:11:54.940Z,95.666
2016-12-24T02:14:48.415Z,95.746
2016-12-24T02:17:43.836Z,95.582
2016-12-24T02:20:35.645Z,95.702
2016-12-24T02:23:29.270Z,95.609
2016-12-24T02:26:22.765Z,95.484
2016-12-24T02:29:16.396Z,95.475
2016-12-24T02:32:09.925Z,95.419
2016-12-24T02:35:04.139Z,95.433
2016-12-24T02:37:57.050Z,95.347
2016-12-24T02:40:50.538Z,95.220
2016-12-24T02:43:45.879Z,95.261
2016-12-24T02:46:37.679Z,95.294
2016-12-24T02:49:31.286Z,95.122
2016-12-24T02:52:26.565Z,95.058
2016-12-24T02:55:20.132Z,95.047
2016-12-24T02:58:12.098Z,95.073
2016-12-24T03:01:05.632Z,94.950
2016-12-24T03:03:59.235Z,94.746
2016-12-24T03:06:52.890Z,94.784
2016-12-24T03:09:46.512Z,94.740
2016-12-24T03:12:42.754Z,94.658
2016-12-24T03:15:33.616Z,94.551
2016-12-24T03:18:28.833Z,94.724
2016-12-24T03:21:22.469Z,94.306
2016-12-24T03:24:16.175Z,94.173
2016-12-24T03:27:08.216Z,94.207
2016-12-24T03:30:01.869Z,94.291
2016-12-24T03:32:55.480Z,94.230
2016-12-24T03:35:49.056Z,94.434
2016-12-24T03:38:44.488Z,94.701
2016-12-24T03:41:36.415Z,95.039
2016-12-24T03:44:29.995Z,95.460
2016-12-24T03:47:25.286Z,95.980
2016-12-24T03:50:17.292Z,96.574
2016-12-24T03:53:10.960Z,96.415
2016-12-24T03:56:04.661Z,97.236
2016-12-24T03:59:00.156Z,97.377
2016-12-24T04:01:52.061Z,97.359
2016-12-24T04:04:47.927Z,98.073
2016-12-24T04:07:39.902Z,98.480
2016-12-24T04:10:35.081Z,98.366
2016-12-24T04:13:27.118Z,98.143
2016-12-24T04:16:20.728Z,97.959
2016-12-24T04:19:14.998Z,97.976
2016-12-24T04:22:07.915Z,97.762
2016-12-24T04:25:02.384Z,98.143
2016-12-24T04:27:55.125Z,97.882
2016-12-24T04:30:48.893Z,97.754
2016-12-24T04:33:42.505Z,97.644
2016-12-24T04:36:36.150Z,97.266
2016-12-24T04:39:31.444Z,97.203
2016-12-24T04:42:23.414Z,97.592
2016-12-24T04:45:17.156Z,97.145
2016-12-24T04:48:10.781Z,97.418
2016-12-24T04:51:04.467Z,97.194
2016-12-24T04:53:59.927Z,97.271
2016-12-24T04:56:51.646Z,97.327
2016-12-24T04:59:45.282Z,97.308
2016-12-24T05:02:39.004Z,97.048
2016-12-24T05:05:32.748Z,97.054
2016-12-24T05:08:26.964Z,97.284
2016-12-24T05:11:22.330Z,97.101
2016-12-24T05:14:14.392Z,97.128
2016-12-24T05:17:09.610Z,96.904
2016-12-24T05:20:03.426Z,96.982
2016-12-24T05:22:55.351Z,97.054
2016-12-24T05:25:48.872Z,96.934
2016-12-24T05:28:42.746Z,97.310
2016-12-24T05:31:38.080Z,97.474
2016-12-24T05:34:29.972Z,97.260
2016-12-24T05:37:23.549Z,97.480
2016-12-24T05:40:17.054Z,98.058
2016-12-24T05:43:10.735Z,97.594
2016-12-24T05:46:04.395Z,98.101
2016-12-24T05:48:59.704Z,98.428
2016-12-24T05:51:53.876Z,98.244
2016-12-24T05:54:47.611Z,98.291
2016-12-24T05:57:41.331Z,98.776
2016-12-24T06:00:33.461Z,98.544
2016-12-24T06:03:27.185Z,98.918
2016-12-24T06:06:20.910Z,98.388
2016-12-24T06:09:14.593Z,98.701
2016-12-24T06:12:08.233Z,98.906
2016-12-24T06:15:01.845Z,98.951
2016-12-24T06:17:55.570Z,99.007
2016-12-24T06:20:49.369Z,98.870
2016-12-24T06:23:43.041Z,99.057
2016-12-24T06:26:36.739Z,99.203
2016-12-24T06:29:30.340Z,99.380
2016-12-24T06:32:23.950Z,99.511
2016-12-24T06:35:17.597Z,99.717
2016-12-24T06:38:11.273Z,99.575
2016-12-24T06:41:05.034Z,99.837
2016-12-24T06:43:58.640Z,99.923
2016-12-24T06:46:54.173Z,99.783
2016-12-24T06:49:47.734Z,99.728
2016-12-24T06:52:39.688Z,99.707
2016-12-24T06:55:33.360Z,99.666
2016-12-24T06:58:27.322Z,99.297
2016-12-24T07:01:21.026Z,99.810
2016-12-24T07:04:16.428Z,99.661
2016-12-24T07:07:08.409Z,99.850
2016-12-24T07:10:02.128Z,99.531
2016-12-24T07:12:55.849Z,99.689
2016-12-24T07:15:51.335Z,99.865
2016-12-24T07:18:43.329Z,99.839
2016-12-24T07:21:37.039Z,99.604
2016-12-24T07:24:32.421Z,99.499
2016-12-24T07:27:24.375Z,99.493
2016-12-24T07:30:18.130Z,99.607
2016-12-24T07:33:11.858Z,99.512
2016-12-24T07:36:05.648Z,99.611
2016-12-24T07:38:59.314Z,99.505
2016-12-24T07:41:53.052Z,99.458
2016-12-24T07:44:46.704Z,99.579
2016-12-24T07:47:40.475Z,99.578
2016-12-24T07:50:35.974Z,99.574
2016-12-24T07:53:27.999Z,99.523
2016-12-24T07:56:21.825Z,99.437
2016-12-24T07:59:17.304Z,99.495
2016-12-24T08:02:09.231Z,99.375
2016-12-24T08:05:02.930Z,99.274
2016-12-24T08:07:58.432Z,99.206
2016-12-24T08:10:50.384Z,99.068
2016-12-24T08:13:43.997Z,99.061
2016-12-24T08:16:39.430Z,99.212
2016-12-24T08:19:31.406Z,99.114
2016-12-24T08:22:26.908Z,98.936
2016-12-24T08:25:18.883Z,99.054
2016-12-24T08:28:12.579Z,99.124
2016-12-24T08:31:06.293Z,99.105
2016-12-24T08:34:01.875Z,99.039
2016-12-24T08:36:53.895Z,98.945
2016-12-24T08:39:47.597Z,98.602
2016-12-24T08:42:41.423Z,98.723
2016-12-24T08:45:35.081Z,98.736
2016-12-24T08:48:28.745Z,98.650
2016-12-24T08:51:24.224Z,98.758
2016-12-24T08:54:16.258Z,98.721
2016-12-24T08:57:09.905Z,98.569
2016-12-24T09:00:03.588Z,98.603
2016-12-24T09:02:57.558Z,98.537
2016-12-24T09:05:53.097Z,98.402
2016-12-24T09:08:45.019Z,98.130
2016-12-24T09:11:40.647Z,98.024
2016-12-24T09:14:34.339Z,98.076
2016-12-24T09:17:26.354Z,97.928
2016-12-24T09:20:21.990Z,97.826
2016-12-24T09:23:15.802Z,97.882
2016-12-24T09:26:07.867Z,97.811
2016-12-24T09:29:01.649Z,97.764
2016-12-24T09:31:55.414Z,97.859
2016-12-24T09:34:51.043Z,97.632
2016-12-24T09:37:42.996Z,97.687
2016-12-24T09:40:36.816Z,97.641
2016-12-24T09:43:30.581Z,97.370
2016-12-24T09:46:24.430Z,97.411
2016-12-24T09:49:18.306Z,97.399
2016-12-24T09:52:12.057Z,97.543
2016-12-24T09:55:05.856Z,97.512
2016-12-24T09:57:59.645Z,97.523
2016-12-24T10:00:53.520Z,97.346
2016-12-24T10:03:47.288Z,97.347
2016-12-24T10:06:41.018Z,97.372
2016-12-24T10:09:34.806Z,97.302
2016-12-24T10:12:28.673Z,97.333
2016-12-24T10:15:22.534Z,97.145
2016-12-24T10:18:16.377Z,97.100
2016-12-24T10:21:10.210Z,97.282
2016-12-24T10:24:05.816Z,97.008
2016-12-24T10:26:59.610Z,96.741
2016-12-24T10:29:51.557Z,96.688
2016-12-24T10:32:47.199Z,96.587
2016-12-24T10:35:39.198Z,96.429
2016-12-24T10:38:33.739Z,96.494
2016-12-24T10:41:28.596Z,96.166
2016-12-24T10:44:20.704Z,95.806
2016-12-24T10:47:14.525Z,95.638
2016-12-24T10:50:08.450Z,95.342
2016-12-24T10:53:02.578Z,95.540
2016-12-24T10:55:56.330Z,95.358
2016-12-24T10:58:51.957Z,95.401
2016-12-24T11:01:45.670Z,95.348
2016-12-24T11:04:37.878Z,95.395
2016-12-24T11:07:31.579Z,95.012
2016-12-24T11:10:25.475Z,94.849
2016-12-24T11:13:19.291Z,94.645
2016-12-24T11:16:13.147Z,94.371
2016-12-24T11:19:07.086Z,94.253
2016-12-24T11:22:01.055Z,94.333
2016-12-24T11:24:56.614Z,94.225
2016-12-24T11:27:48.779Z,94.445
2016-12-24T11:30:42.574Z,94.121
2016-12-24T11:33:36.458Z,94.299
2016-12-24T11:36:30.375Z,94.028
2016-12-24T11:39:26.055Z,94.113
2016-12-24T11:42:19.817Z,94.099
2016-12-24T11:45:12.000Z,94.421
2016-12-24T11:48:05.828Z,94.116
2016-12-24T11:50:59.742Z,94.182
2016-12-24T11:53:53.583Z,94.781
2016-12-24T11:56:47.976Z,95.139
2016-12-24T11:59:41.764Z,95.391
2016-12-24T12:02:37.369Z,95.341
2016-12-24T12:05:29.434Z,95.518
2016-12-24T12:08:23.231Z,95.503
2016-12-24T12:11:17.029Z,95.351
2016-12-24T12:14:10.969Z,95.120
2016-12-24T12:17:04.744Z,94.863
2016-12-24T12:20:00.433Z,94.696
2016-12-24T12:22:54.301Z,94.408
2016-12-24T12:25:48.321Z,94.354
2016-12-24T12:28:42.152Z,93.991
2016-12-24T12:31:34.309Z,93.884
2016-12-24T12:34:28.230Z,93.732
2016-12-24T12:37:23.803Z,93.490
2016-12-24T12:40:15.952Z,93.328
2016-12-24T12:43:09.875Z,93.114
2016-12-24T12:46:03.720Z,93.138
2016-12-24T12:48:59.248Z,92.990
2016-12-24T12:51:51.448Z,92.605
2016-12-24T12:54:45.269Z,92.334
2016-12-24T12:57:39.416Z,92.232
2016-12-24T13:00:33.281Z,91.897
2016-12-24T13:03:27.428Z,91.976
2016-12-24T13:06:21.397Z,91.636
2016-12-24T13:09:15.321Z,91.840
2016-12-24T13:12:09.096Z,91.093
2016-12-24T13:15:03.069Z,91.437
2016-12-24T13:17:58.661Z,91.249
2016-12-24T13:20:50.949Z,91.524
2016-12-24T13:23:44.788Z,90.859
2016-12-24T13:26:40.300Z,91.012
2016-12-24T13:29:34.347Z,91.366
2016-12-24T13:32:26.468Z,91.328
2016-12-24T13:35:22.078Z,91.595
2016-12-24T13:38:14.353Z,91.167
2016-12-24T13:41:08.267Z,91.115
2016-12-24T13:44:02.063Z,91.169
2016-12-24T13:46:55.902Z,91.154
2016-12-24T13:49:49.745Z,91.279
2016-12-24T13:52:43.882Z,91.232
2016-12-24T13:55:37.754Z,91.148
2016-12-24T13:58:33.217Z,91.112
2016-12-24T14:01:25.384Z,91.265
2016-12-24T14:04:19.244Z,90.855
2016-12-24T14:07:13.142Z,90.808
2016-12-24T14:10:08.731Z,91.390
2016-12-24T14:13:00.902Z,90.911
2016-12-24T14:15:54.755Z,90.711
2016-12-24T14:18:50.319Z,90.743
2016-12-24T14:21:44.176Z,90.703
2016-12-24T14:24:36.394Z,90.682
2016-12-24T14:27:30.293Z,90.963
2016-12-24T14:30:24.014Z,90.995
2016-12-24T14:33:17.859Z,91.100
2016-12-24T14:36:13.387Z,90.791
2016-12-24T14:39:07.299Z,90.879
2016-12-24T14:41:59.480Z,90.749
2016-12-24T14:44:53.411Z,90.811
2016-12-24T14:47:47.300Z,90.657
2016-12-24T14:50:41.089Z,90.482
2016-12-24T14:53:35.093Z,90.671
2016-12-24T14:56:28.977Z,90.713
2016-12-24T14:59:23.046Z,90.753
2016-12-24T15:02:18.648Z,90.592
2016-12-24T15:05:10.870Z,90.704
2016-12-24T15:08:04.735Z,90.663
2016-12-24T15:10:58.669Z,90.576
2016-12-24T15:13:52.855Z,90.441
2016-12-24T15:16:46.605Z,90.269
2016-12-24T15:19:40.376Z,90.305
2016-12-24T15:22:34.256Z,90.049
2016-12-24T15:25:29.865Z,89.750
2016-12-24T15:28:21.921Z,89.906
2016-12-24T15:31:17.402Z,90.251
2016-12-24T15:34:09.630Z,89.765
2016-12-24T15:37:05.244Z,89.938
2016-12-24T15:39:57.292Z,89.397
2016-12-24T15:42:51.098Z,88.958
2016-12-24T15:45:44.925Z,89.234
2016-12-24T15:48:38.879Z,89.032
2016-12-24T15:51:34.730Z,88.563
2016-12-24T15:54:26.976Z,88.255
2016-12-24T15:57:20.859Z,88.128
2016-12-24T16:00:16.447Z,87.764
2016-12-24T16:03:08.680Z,87.683
2016-12-24T16:06:02.614Z,87.653
2016-12-24T16:08:56.504Z,87.390
2016-12-24T16:11:50.351Z,86.921
2016-12-24T16:14:44.593Z,86.851
2016-12-24T16:17:40.219Z,86.746
2016-12-24T16:20:32.440Z,87.035
2016-12-24T16:23:26.259Z,86.431
2016-12-24T16:26:20.100Z,86.409
2016-12-24T16:29:13.985Z,86.550
2016-12-24T16:32:07.781Z,86.079
2016-12-24T16:35:03.408Z,85.878
2016-12-24T16:37:55.543Z,87.057
2016-12-24T16:40:49.335Z,86.418
2016-12-24T16:43:43.133Z,86.802
2016-12-24T16:46:36.971Z,86.643
2016-12-24T16:49:30.789Z,85.541
2016-12-24T16:52:24.766Z,85.903
2016-12-24T16:55:18.577Z,86.457
2016-12-24T16:58:12.497Z,85.833
2016-12-24T17:01:08.121Z,85.816
2016-12-24T17:04:00.214Z,85.996
2016-12-24T17:06:54.239Z,85.397
2016-12-24T17:09:49.717Z,84.999
2016-12-24T17:12:41.836Z,85.956
2016-12-24T17:15:35.735Z,84.747
2016-12-24T17:18:30.060Z,84.413
2016-12-24T17:21:25.608Z,84.756
2016-12-24T17:24:17.767Z,84.937
2016-12-24T17:27:11.693Z,84.717
2016-12-24T17:30:07.127Z,84.644
2016-12-24T17:33:00.854Z,84.291
2016-12-24T17:35:53.005Z,85.265
2016-12-24T17:38:46.875Z,84.562
2016-12-24T17:41:42.393Z,85.394
2016-12-24T17:44:36.327Z,84.345
2016-12-24T17:47:30.125Z,84.587
2016-12-24T17:50:22.319Z,84.944
2016-12-24T17:53:16.156Z,85.448
2016-12-24T17:56:10.047Z,84.618
2016-12-24T17:59:03.870Z,84.357
2016-12-24T18:01:57.720Z,84.634
2016-12-24T18:04:51.561Z,84.503
2016-12-24T18:07:45.437Z,85.156
2016-12-24T18:10:39.247Z,85.059
2016-12-24T18:13:33.127Z,84.795
2016-12-24T18:16:28.721Z,85.006
2016-12-24T18:19:22.498Z,85.387
2016-12-24T18:22:14.861Z,85.358
2016-12-24T18:25:10.416Z,85.368
2016-12-24T18:28:02.438Z,85.336
2016-12-24T18:30:56.273Z,86.054
2016-12-24T18:33:52.225Z,85.818
2016-12-24T18:36:44.311Z,85.402
2016-12-24T18:39:38.007Z,85.864
2016-12-24T18:42:31.890Z,86.375
2016-12-24T18:45:25.656Z,85.558
2016-12-24T18:48:19.476Z,85.861
2016-12-24T18:51:14.951Z,85.748
2016-12-24T18:54:07.164Z,85.441
2016-12-24T18:57:01.049Z,85.468
2016-12-24T18:59:54.881Z,85.757
2016-12-24T19:02:48.722Z,85.958
2016-12-24T19:05:42.613Z,85.333
2016-12-24T19:08:36.438Z,85.781
2016-12-24T19:11:30.245Z,85.439
2016-12-24T19:14:24.326Z,85.247
2016-12-24T19:17:18.199Z,85.583
2016-12-24T19:20:12.056Z,85.207
2016-12-24T19:23:05.947Z,85.171
2016-12-24T19:25:59.789Z,85.364
2016-12-24T19:28:55.463Z,85.111
2016-12-24T19:31:47.614Z,84.869
2016-12-24T19:34:41.368Z,84.992
2016-12-24T19:37:35.249Z,85.902
2016-12-24T19:40:29.137Z,85.238
2016-12-24T19:43:24.804Z,85.557
2016-12-24T19:46:16.851Z,85.640
2016-12-24T19:49:10.611Z,85.761
2016-12-24T19:52:04.378Z,85.250
2016-12-24T19:54:58.098Z,85.697
2016-12-24T19:57:53.718Z,84.791
2016-12-24T20:00:45.864Z,85.057
2016-12-24T20:03:39.756Z,85.458
2016-12-24T20:06:35.358Z,85.569
2016-12-24T20:09:27.418Z,85.440
2016-12-24T20:12:21.306Z,85.920
2016-12-24T20:15:15.111Z,85.841
2016-12-24T20:18:08.961Z,86.031
2016-12-24T20:21:03.319Z,85.801
2016-12-24T20:23:57.225Z,86.166
2016-12-24T20:26:51.119Z,85.909
2016-12-24T20:29:46.612Z,85.791
2016-12-24T20:32:38.807Z,85.946
2016-12-24T20:35:34.327Z,85.291
2016-12-24T20:38:28.221Z,85.582
2016-12-24T20:41:20.465Z,85.747
2016-12-24T20:44:14.263Z,86.305
2016-12-24T20:47:08.059Z,85.455
2016-12-24T20:50:01.901Z,85.838
2016-12-24T20:52:55.708Z,85.557
2016-12-24T20:55:49.597Z,85.163
2016-12-24T20:58:45.244Z,85.371
2016-12-24T21:01:37.476Z,85.918
2016-12-24T21:04:31.214Z,85.203
2016-12-24T21:07:25.101Z,85.416
2016-12-24T21:10:20.718Z,86.098
2016-12-24T21:13:12.981Z,84.895
2016-12-24T21:16:06.892Z,84.734
2016-12-24T21:19:00.767Z,85.212
2016-12-24T21:21:54.709Z,84.802
2016-12-24T21:24:48.632Z,84.779
2016-12-24T21:27:42.477Z,84.737
2016-12-24T21:30:36.277Z,85.137
2016-12-24T21:33:30.095Z,84.834
2016-12-24T21:36:23.959Z,85.076
2016-12-24T21:39:18.267Z,84.992
2016-12-24T21:42:12.187Z,85.226
2016-12-24T21:45:07.705Z,85.435
2016-12-24T21:48:00.325Z,85.483
2016-12-24T21:50:55.952Z,85.867
2016-12-24T21:53:48.087Z,85.898
2016-12-24T21:56:41.944Z,86.116
2016-12-24T21:59:35.683Z,86.465
2016-12-24T22:02:29.559Z,86.645
2016-12-24T22:05:23.392Z,86.611
2016-12-24T22:08:17.176Z,86.583
2016-12-24T22:11:10.918Z,86.321
2016-12-24T22:14:06.341Z,86.777
2016-12-24T22:17:00.154Z,86.839
2016-12-24T22:19:52.202Z,86.928
2016-12-24T22:22:45.959Z,87.327
2016-12-24T22:25:39.808Z,87.069
2016-12-24T22:28:33.564Z,87.211
2016-12-24T22:31:29.104Z,87.125
2016-12-24T22:34:21.247Z,87.143
2016-12-24T22:37:14.928Z,87.310
2016-12-24T22:40:08.651Z,87.222
2016-12-24T22:43:02.432Z,87.133
2016-12-24T22:45:57.805Z,87.375
2016-12-24T22:48:49.997Z,87.509
2016-12-24T22:51:45.657Z,87.605
2016-12-24T22:54:37.615Z,87.687
2016-12-24T22:57:31.444Z,87.689
2016-12-24T23:00:25.208Z,87.746
2016-12-24T23:03:20.704Z,87.723
2016-12-24T23:06:12.786Z,87.420
2016-12-24T23:09:06.669Z,87.373
2016-12-24T23:12:00.760Z,87.199
2016-12-24T23:14:54.635Z,87.583
2016-12-24T23:17:48.355Z,88.057
2016-12-24T23:20:42.147Z,88.464
2016-12-24T23:23:35.964Z,88.273
2016-12-24T23:26:31.451Z,88.257
2016-12-24T23:29:23.580Z,88.364
2016-12-24T23:32:17.398Z,88.430
2016-12-24T23:38:06.822Z,87.979
2016-12-24T23:40:58.921Z,87.924
2016-12-24T23:43:52.769Z,87.421
2016-12-24T23:46:46.615Z,87.362
2016-12-24T23:49:42.309Z,87.432
2016-12-24T23:52:34.397Z,87.343
2016-12-24T23:55:28.284Z,87.198
2016-12-24T23:58:22.146Z,87.083
